Time;durP1;ratioP1;P1;durP2;ratioP2;P2;SDS_P1;SDS_P2;PMS_P1;PMS_P2;Temp;Humidity;BMP_temperature;BMP_pressure;BME280_temperature;BME280_humidity;BME280_pressure;Samples;Min_cycle;Max_cycle;Signal;HPM_P1;HPM_P2
2023/10/21 00:01:11;;;;;;;4.97;2.55;;;12.40;99.90;;;;;;6304343;22;20007;-83
2023/10/21 00:03:37;;;;;;;5.95;3.38;;;12.40;99.90;;;;;;6303056;22;20373;-84
2023/10/21 00:06:03;;;;;;;6.25;3.30;;;12.40;99.90;;;;;;6303213;22;20041;-84
2023/10/21 00:08:29;;;;;;;6.95;3.05;;;12.40;99.90;;;;;;6303594;22;20007;-84
2023/10/21 00:11:05;;;;;;;4.47;2.20;;;12.40;99.90;;;;;;6302770;22;20011;-83
2023/10/21 00:13:31;;;;;;;5.75;2.95;;;12.40;99.90;;;;;;6302772;22;20504;-84
2023/10/21 00:15:57;;;;;;;4.80;2.42;;;12.40;99.90;;;;;;6303407;22;20042;-84
2023/10/21 00:18:24;;;;;;;9.68;3.28;;;12.40;99.90;;;;;;6302636;22;20435;-84
2023/10/21 00:20:54;;;;;;;5.65;2.55;;;12.50;99.90;;;;;;6303038;22;20018;-84
2023/10/21 00:23:21;;;;;;;6.60;3.40;;;12.40;99.90;;;;;;6302766;22;20454;-84
2023/10/21 00:25:47;;;;;;;6.82;2.50;;;12.40;99.90;;;;;;6301810;22;20465;-84
2023/10/21 00:28:12;;;;;;;8.38;2.47;;;12.40;99.90;;;;;;6275447;22;20098;-84
2023/10/21 00:30:38;;;;;;;5.65;2.45;;;12.40;99.90;;;;;;6275198;22;20098;-84
2023/10/21 00:33:04;;;;;;;5.40;2.55;;;12.30;99.90;;;;;;6274475;22;20072;-84
2023/10/21 00:35:32;;;;;;;4.82;2.55;;;12.30;99.90;;;;;;6303166;22;20015;-84
2023/10/21 00:37:58;;;;;;;5.20;2.55;;;12.30;99.90;;;;;;6302618;22;20015;-84
2023/10/21 00:40:23;;;;;;;5.95;2.78;;;12.20;99.90;;;;;;6302275;22;20015;-84
2023/10/21 00:42:49;;;;;;;4.30;2.42;;;12.20;99.90;;;;;;6275219;22;20083;-83
2023/10/21 00:45:23;;;;;;;7.95;2.78;;;12.20;99.90;;;;;;6273021;22;20036;-84
2023/10/21 00:48:04;;;;;;;6.68;2.28;;;12.20;99.90;;;;;;6298532;22;20026;-84
2023/10/21 00:50:30;;;;;;;4.38;2.42;;;12.10;99.90;;;;;;6302654;22;20332;-84
2023/10/21 00:52:56;;;;;;;5.40;2.47;;;12.10;99.90;;;;;;6301646;22;20453;-84
2023/10/21 00:55:21;;;;;;;6.07;2.63;;;12.10;99.90;;;;;;6275161;22;20102;-83
2023/10/21 00:57:48;;;;;;;7.88;2.67;;;12.10;99.90;;;;;;6302008;22;20053;-84
2023/10/21 01:00:16;;;;;;;7.13;2.78;;;12.00;99.90;;;;;;6273521;22;20484;-84
2023/10/21 01:02:42;;;;;;;5.57;2.75;;;12.00;99.90;;;;;;6300628;22;20492;-84
2023/10/21 01:05:09;;;;;;;8.23;2.47;;;12.00;99.90;;;;;;6274449;22;20038;-84
2023/10/21 01:07:35;;;;;;;5.60;2.75;;;11.90;99.90;;;;;;6301189;22;20007;-83
2023/10/21 01:10:04;;;;;;;4.15;2.22;;;11.90;99.90;;;;;;6302498;22;20360;-84
2023/10/21 01:12:30;;;;;;;3.78;2.25;;;11.90;99.90;;;;;;6274391;22;20069;-84
2023/10/21 01:14:56;;;;;;;3.95;2.15;;;11.80;99.90;;;;;;6301467;22;20066;-83
2023/10/21 01:17:22;;;;;;;6.03;2.65;;;11.80;99.90;;;;;;6302895;22;20015;-83
2023/10/21 01:19:48;;;;;;;4.40;2.55;;;11.80;99.90;;;;;;6275363;22;20435;-84
2023/10/21 01:22:15;;;;;;;6.30;2.90;;;11.80;99.90;;;;;;6275995;22;20047;-83
2023/10/21 01:24:41;;;;;;;3.20;1.80;;;11.70;99.90;;;;;;6275803;22;20012;-84
2023/10/21 01:27:07;;;;;;;4.65;2.22;;;11.70;99.90;;;;;;6274162;22;20340;-84
2023/10/21 01:29:33;;;;;;;5.30;2.60;;;11.70;99.90;;;;;;6303393;22;20090;-83
2023/10/21 01:31:59;;;;;;;6.57;2.60;;;11.70;99.90;;;;;;6275407;22;20395;-83
2023/10/21 01:34:24;;;;;;;4.97;2.40;;;11.70;99.90;;;;;;6302266;22;20014;-84
2023/10/21 01:36:50;;;;;;;7.30;2.20;;;11.70;99.90;;;;;;6303366;22;20007;-84
2023/10/21 01:39:18;;;;;;;3.58;2.10;;;11.70;99.90;;;;;;6303376;22;20635;-84
2023/10/21 01:41:44;;;;;;;3.95;2.05;;;11.70;99.90;;;;;;6302379;22;20011;-83
2023/10/21 01:44:10;;;;;;;5.70;2.25;;;11.60;99.90;;;;;;6303052;22;20018;-83
2023/10/21 01:46:37;;;;;;;4.28;1.92;;;11.60;99.90;;;;;;6302417;22;20137;-84
2023/10/21 01:49:03;;;;;;;3.60;1.98;;;11.60;99.90;;;;;;6301122;22;20012;-84
2023/10/21 01:51:29;;;;;;;4.15;2.35;;;11.60;99.90;;;;;;6303352;22;20019;-84
2023/10/21 01:53:55;;;;;;;4.85;2.05;;;11.60;99.90;;;;;;6303253;22;20009;-84
2023/10/21 01:56:21;;;;;;;4.45;2.40;;;11.60;99.90;;;;;;6302585;22;20491;-84
2023/10/21 01:58:47;;;;;;;4.40;2.13;;;11.60;99.90;;;;;;6302866;22;20007;-84
2023/10/21 02:01:12;;;;;;;2.78;1.75;;;11.60;99.90;;;;;;6303200;22;20003;-83
2023/10/21 02:03:41;;;;;;;2.38;1.40;;;11.60;99.90;;;;;;6301953;22;20015;-84
2023/10/21 02:06:08;;;;;;;4.18;1.98;;;11.60;99.90;;;;;;6302870;22;20100;-83
2023/10/21 02:08:34;;;;;;;3.88;1.85;;;11.60;99.90;;;;;;6303181;22;20004;-83
2023/10/21 02:11:00;;;;;;;5.95;2.85;;;11.60;99.90;;;;;;6301996;22;20011;-83
2023/10/21 02:13:26;;;;;;;4.28;2.17;;;11.60;99.90;;;;;;6303223;22;20015;-84
2023/10/21 02:15:51;;;;;;;4.28;1.65;;;11.60;99.90;;;;;;6302388;22;20068;-84
2023/10/21 02:18:17;;;;;;;5.22;2.45;;;11.60;99.90;;;;;;6303162;22;20011;-84
2023/10/21 02:20:43;;;;;;;4.20;2.25;;;11.60;99.90;;;;;;6302970;22;20086;-83
2023/10/21 02:23:09;;;;;;;5.68;2.25;;;11.60;99.90;;;;;;6301850;22;20007;-83
2023/10/21 02:25:35;;;;;;;4.50;1.92;;;11.60;99.90;;;;;;6303147;22;20114;-84
2023/10/21 02:28:01;;;;;;;4.70;2.60;;;11.60;99.90;;;;;;6302637;22;20011;-84
2023/10/21 02:30:27;;;;;;;5.55;1.95;;;11.60;99.90;;;;;;6301851;22;20390;-84
2023/10/21 02:32:53;;;;;;;3.30;2.20;;;11.60;99.90;;;;;;6274838;22;20443;-84
2023/10/21 02:35:19;;;;;;;3.83;2.08;;;11.50;99.90;;;;;;6275059;22;20351;-84
2023/10/21 02:37:45;;;;;;;4.95;2.67;;;11.50;99.90;;;;;;6249893;22;20025;-84
2023/10/21 02:40:17;;;;;;;3.53;1.83;;;11.50;99.90;;;;;;6303729;22;20011;-83
2023/10/21 02:42:44;;;;;;;7.03;2.13;;;11.50;99.90;;;;;;6302939;22;20007;-84
2023/10/21 02:45:10;;;;;;;6.57;1.95;;;11.50;99.90;;;;;;6301985;22;20439;-84
2023/10/21 02:47:36;;;;;;;6.57;2.15;;;11.50;99.90;;;;;;6302743;22;20057;-84
2023/10/21 02:50:03;;;;;;;4.35;2.03;;;11.50;99.90;;;;;;6301489;22;20054;-84
2023/10/21 02:52:29;;;;;;;3.80;1.90;;;11.50;99.90;;;;;;6301080;22;20004;-84
2023/10/21 02:54:55;;;;;;;9.00;2.08;;;11.50;99.90;;;;;;6302761;22;20007;-83
2023/10/21 02:57:21;;;;;;;4.72;1.77;;;11.50;99.90;;;;;;6302443;22;20339;-83
2023/10/21 02:59:46;;;;;;;2.55;1.63;;;11.50;99.90;;;;;;6273929;22;20019;-83
2023/10/21 03:02:13;;;;;;;3.85;2.22;;;11.40;99.90;;;;;;6301843;22;20007;-84
2023/10/21 03:04:39;;;;;;;3.75;2.05;;;11.50;99.90;;;;;;6302685;22;20018;-84
2023/10/21 03:07:05;;;;;;;3.60;1.77;;;11.40;99.90;;;;;;6301260;22;20107;-83
2023/10/21 03:09:31;;;;;;;3.50;1.83;;;11.40;99.90;;;;;;6302442;22;20019;-83
2023/10/21 03:11:57;;;;;;;7.95;1.98;;;11.40;99.90;;;;;;6301366;22;20018;-83
2023/10/21 03:14:22;;;;;;;5.13;2.40;;;11.40;99.90;;;;;;6301986;22;20007;-84
2023/10/21 03:16:48;;;;;;;2.90;1.40;;;11.40;99.90;;;;;;6302447;22;20015;-84
2023/10/21 03:19:15;;;;;;;3.55;2.03;;;11.40;99.90;;;;;;6301708;22;20060;-84
2023/10/21 03:21:40;;;;;;;4.70;1.90;;;11.30;99.90;;;;;;6302556;22;20007;-83
2023/10/21 03:24:06;;;;;;;4.13;2.40;;;11.30;99.90;;;;;;6302589;22;20086;-84
2023/10/21 03:26:32;;;;;;;3.80;1.42;;;11.30;99.90;;;;;;6301607;22;20015;-84
2023/10/21 03:28:58;;;;;;;5.63;2.38;;;11.30;99.90;;;;;;6302065;22;20432;-84
2023/10/21 03:31:23;;;;;;;5.05;1.70;;;11.30;99.90;;;;;;6302014;22;20012;-83
2023/10/21 03:33:49;;;;;;;7.50;2.10;;;11.30;99.90;;;;;;6248062;22;20072;-83
2023/10/21 03:36:15;;;;;;;4.65;1.95;;;11.20;99.90;;;;;;6302263;22;20003;-84
2023/10/21 03:38:42;;;;;;;4.65;2.38;;;11.20;99.90;;;;;;6274601;22;20018;-84
2023/10/21 03:41:10;;;;;;;4.05;2.20;;;11.20;99.90;;;;;;6301165;22;20011;-83
2023/10/21 03:43:36;;;;;;;4.15;2.10;;;11.20;99.90;;;;;;6302142;22;20443;-84
2023/10/21 03:46:14;;;;;;;4.68;2.53;;;11.20;99.90;;;;;;6302078;22;20045;-83
2023/10/21 03:48:40;;;;;;;5.47;3.15;;;11.20;99.90;;;;;;6300937;22;20046;-83
2023/10/21 03:51:12;;;;;;;8.23;2.50;;;11.10;99.90;;;;;;6274530;22;20463;-83
2023/10/21 03:53:43;;;;;;;7.43;2.70;;;11.10;99.90;;;;;;6300471;22;20042;-83
2023/10/21 03:56:09;;;;;;;7.32;3.38;;;11.10;99.90;;;;;;6302268;22;20022;-83
2023/10/21 03:58:37;;;;;;;5.57;2.92;;;11.10;99.90;;;;;;6303731;22;20383;-83
2023/10/21 04:01:03;;;;;;;8.20;3.13;;;11.10;99.90;;;;;;6301608;22;20428;-83
2023/10/21 04:03:31;;;;;;;4.45;2.55;;;11.10;99.90;;;;;;6302026;22;20015;-84
2023/10/21 04:05:57;;;;;;;6.95;3.17;;;11.10;99.90;;;;;;6274782;22;20078;-83
2023/10/21 04:08:24;;;;;;;6.72;3.50;;;11.10;99.90;;;;;;6301546;22;20046;-83
2023/10/21 04:10:50;;;;;;;12.48;3.03;;;11.10;99.90;;;;;;6274505;22;20023;-84
2023/10/21 04:13:16;;;;;;;7.75;3.72;;;11.10;99.90;;;;;;6302730;22;20378;-84
2023/10/21 04:15:42;;;;;;;7.50;2.72;;;11.10;99.90;;;;;;6302941;22;20079;-83
2023/10/21 04:18:08;;;;;;;7.15;4.18;;;11.10;99.90;;;;;;6304401;22;20011;-84
2023/10/21 04:20:34;;;;;;;7.55;3.38;;;11.10;99.90;;;;;;6303914;22;20474;-84
2023/10/21 04:23:00;;;;;;;7.18;3.63;;;11.10;99.90;;;;;;6302971;22;20014;-84
2023/10/21 04:25:27;;;;;;;6.68;3.28;;;11.10;99.90;;;;;;6304125;22;20007;-84
2023/10/21 04:27:53;;;;;;;8.55;4.05;;;11.10;99.90;;;;;;6303666;22;20436;-83
2023/10/21 04:30:18;;;;;;;5.07;2.90;;;11.10;99.90;;;;;;6303128;22;20049;-84
2023/10/21 04:32:44;;;;;;;6.88;3.85;;;11.20;99.90;;;;;;6303979;22;20015;-83
2023/10/21 04:35:10;;;;;;;8.00;3.88;;;11.20;99.90;;;;;;6276245;22;20425;-84
2023/10/21 04:37:36;;;;;;;9.50;3.70;;;11.20;99.90;;;;;;6303306;22;20042;-84
2023/10/21 04:40:03;;;;;;;7.03;3.55;;;11.20;99.90;;;;;;6304014;22;20505;-83
2023/10/21 04:42:29;;;;;;;6.43;3.72;;;11.30;99.90;;;;;;6303961;22;20008;-84
2023/10/21 04:44:55;;;;;;;6.45;3.40;;;11.30;99.90;;;;;;6303212;22;20582;-83
2023/10/21 04:47:21;;;;;;;7.95;3.72;;;11.30;99.90;;;;;;6303222;22;20030;-84
2023/10/21 04:49:47;;;;;;;10.23;4.18;;;11.20;99.90;;;;;;6303954;22;20113;-84
2023/10/21 04:52:17;;;;;;;6.65;3.30;;;11.20;99.90;;;;;;6307875;22;20045;-84
2023/10/21 04:54:43;;;;;;;6.72;3.53;;;11.20;99.90;;;;;;6307635;22;20012;-83
2023/10/21 04:57:10;;;;;;;11.05;5.22;;;11.20;99.90;;;;;;6301268;22;20432;-84
2023/10/21 04:59:36;;;;;;;12.82;4.65;;;11.10;99.90;;;;;;6303437;22;20542;-84
2023/10/21 05:02:03;;;;;;;7.03;3.90;;;11.10;99.90;;;;;;6303850;22;20086;-84
2023/10/21 05:04:30;;;;;;;10.93;3.92;;;11.10;99.90;;;;;;6303048;22;20069;-84
2023/10/21 05:06:55;;;;;;;6.97;3.33;;;11.00;99.90;;;;;;6303921;22;20336;-84
2023/10/21 05:09:21;;;;;;;7.47;4.18;;;11.00;99.90;;;;;;6303682;22;20030;-84
2023/10/21 05:11:47;;;;;;;7.25;2.85;;;10.90;99.90;;;;;;6302511;22;20061;-84
2023/10/21 05:14:13;;;;;;;6.05;2.58;;;10.90;99.90;;;;;;6275983;22;20038;-84
2023/10/21 05:16:39;;;;;;;8.93;3.78;;;10.80;99.90;;;;;;6277276;22;20092;-84
2023/10/21 05:19:05;;;;;;;11.13;4.45;;;10.80;99.90;;;;;;6276389;22;20042;-83
2023/10/21 05:21:31;;;;;;;9.85;4.85;;;10.80;99.90;;;;;;6303495;22;20014;-85
2023/10/21 05:23:58;;;;;;;10.43;4.65;;;10.70;99.90;;;;;;6303098;22;20509;-83
2023/10/21 05:26:25;;;;;;;8.18;4.10;;;10.80;99.90;;;;;;6301831;22;20007;-83
2023/10/21 05:28:51;;;;;;;7.88;4.00;;;10.70;99.90;;;;;;6303465;22;20007;-83
2023/10/21 05:31:16;;;;;;;8.77;4.05;;;10.70;99.90;;;;;;6303459;22;20035;-83
2023/10/21 05:33:44;;;;;;;9.55;4.53;;;10.80;99.90;;;;;;6302375;22;20012;-83
2023/10/21 05:36:11;;;;;;;8.57;3.78;;;10.80;99.90;;;;;;6303273;22;20011;-83
2023/10/21 05:38:36;;;;;;;11.07;5.35;;;10.80;99.90;;;;;;6303355;22;20162;-83
2023/10/21 05:41:02;;;;;;;9.20;4.88;;;10.90;99.90;;;;;;6302126;22;20051;-83
2023/10/21 05:43:28;;;;;;;10.13;4.43;;;10.90;99.90;;;;;;6303122;22;20067;-83
2023/10/21 05:45:54;;;;;;;12.43;5.25;;;10.90;99.90;;;;;;6302508;22;20007;-83
2023/10/21 05:48:20;;;;;;;9.48;4.97;;;10.90;99.90;;;;;;6302919;22;20397;-83
2023/10/21 05:50:47;;;;;;;10.32;5.43;;;10.90;99.90;;;;;;6275380;22;20023;-84
2023/10/21 05:53:13;;;;;;;10.95;5.50;;;10.90;99.90;;;;;;6302294;22;20327;-83
2023/10/21 05:55:45;;;;;;;9.88;4.07;;;10.90;99.90;;;;;;6302862;22;20011;-83
2023/10/21 05:58:11;;;;;;;9.48;5.05;;;10.90;99.90;;;;;;6302126;22;20114;-83
2023/10/21 06:00:37;;;;;;;9.88;4.00;;;10.90;99.90;;;;;;6300604;22;20007;-83
2023/10/21 06:03:05;;;;;;;9.07;4.32;;;10.90;99.90;;;;;;6302636;22;20042;-84
2023/10/21 06:05:31;;;;;;;8.90;4.30;;;10.90;99.90;;;;;;6303403;22;20030;-85
2023/10/21 06:07:57;;;;;;;7.53;4.15;;;10.90;99.90;;;;;;6302323;22;20007;-84
2023/10/21 06:10:23;;;;;;;10.10;4.63;;;10.90;99.90;;;;;;6303147;22;20373;-85
2023/10/21 06:12:49;;;;;;;6.90;4.05;;;10.90;99.90;;;;;;6303056;22;20011;-84
2023/10/21 06:15:15;;;;;;;11.77;4.70;;;10.90;99.90;;;;;;6274515;22;20022;-85
2023/10/21 06:17:41;;;;;;;8.43;4.60;;;11.00;99.90;;;;;;6275130;22;20015;-84
2023/10/21 06:20:10;;;;;;;7.57;3.55;;;11.00;99.90;;;;;;6302961;22;20088;-84
2023/10/21 06:22:37;;;;;;;12.27;4.97;;;11.00;99.90;;;;;;6302188;22;20378;-84
2023/10/21 06:25:04;;;;;;;8.60;3.88;;;11.10;99.90;;;;;;6275321;22;20019;-84
2023/10/21 06:27:30;;;;;;;8.10;4.72;;;11.10;99.90;;;;;;6275190;22;20049;-85
2023/10/21 06:29:55;;;;;;;8.77;4.93;;;11.10;99.90;;;;;;6274376;22;20015;-84
2023/10/21 06:32:22;;;;;;;7.20;4.00;;;11.20;99.90;;;;;;6302618;22;20019;-84
2023/10/21 06:34:47;;;;;;;8.27;4.35;;;11.20;99.90;;;;;;6303189;22;20015;-85
2023/10/21 06:37:13;;;;;;;6.88;4.05;;;11.20;99.90;;;;;;6275942;22;20011;-83
2023/10/21 06:39:39;;;;;;;8.05;4.10;;;11.30;99.90;;;;;;6303141;22;20018;-83
2023/10/21 06:42:05;;;;;;;7.53;3.83;;;11.30;99.90;;;;;;6301771;22;20015;-83
2023/10/21 06:44:31;;;;;;;9.88;4.63;;;11.30;99.90;;;;;;6302556;22;20011;-83
2023/10/21 06:46:57;;;;;;;7.50;4.05;;;11.30;99.90;;;;;;6302679;22;20008;-83
2023/10/21 06:49:23;;;;;;;8.50;4.28;;;11.30;99.90;;;;;;6307259;22;20015;-83
2023/10/21 06:51:54;;;;;;;8.48;3.95;;;11.40;99.90;;;;;;6302423;22;20016;-83
2023/10/21 06:54:21;;;;;;;12.75;5.22;;;11.50;99.90;;;;;;6275150;22;20454;-83
2023/10/21 06:56:47;;;;;;;7.00;4.30;;;11.60;99.90;;;;;;6302105;22;20011;-83
2023/10/21 06:59:13;;;;;;;6.70;4.28;;;11.60;99.90;;;;;;6302424;22;20013;-84
2023/10/21 07:01:39;;;;;;;6.72;3.63;;;11.70;99.90;;;;;;6301479;22;20030;-84
2023/10/21 07:04:06;;;;;;;9.48;4.13;;;11.80;99.90;;;;;;6300780;22;20043;-85
2023/10/21 07:06:32;;;;;;;5.82;2.55;;;11.80;99.90;;;;;;6274695;22;20463;-84
2023/10/21 07:08:58;;;;;;;7.90;4.28;;;11.90;99.90;;;;;;6274599;22;20015;-84
2023/10/21 07:11:26;;;;;;;7.18;4.18;;;11.90;99.90;;;;;;6301177;22;20423;-83
2023/10/21 07:13:52;;;;;;;7.60;4.00;;;12.00;99.90;;;;;;6274536;22;20019;-84
2023/10/21 07:16:18;;;;;;;7.82;4.00;;;12.00;99.90;;;;;;6308857;22;20018;-84
2023/10/21 07:18:44;;;;;;;6.80;3.67;;;12.10;99.90;;;;;;6273991;22;20340;-83
2023/10/21 07:21:11;;;;;;;9.02;4.72;;;12.10;99.90;;;;;;6299541;22;20015;-83
2023/10/21 07:23:36;;;;;;;6.28;3.40;;;12.20;99.90;;;;;;6302216;22;20018;-83
2023/10/21 07:26:02;;;;;;;8.02;4.10;;;12.20;99.90;;;;;;6301493;22;20043;-83
2023/10/21 07:28:29;;;;;;;10.20;3.95;;;12.20;99.90;;;;;;6302282;22;20004;-82
2023/10/21 07:30:54;;;;;;;6.50;3.58;;;12.20;99.90;;;;;;6301077;22;20022;-83
2023/10/21 07:33:21;;;;;;;7.47;3.22;;;12.20;99.90;;;;;;6274244;22;20015;-83
2023/10/21 07:35:51;;;;;;;7.15;4.15;;;12.20;99.90;;;;;;6249008;22;20086;-83
2023/10/21 07:38:17;;;;;;;6.97;3.67;;;12.30;99.90;;;;;;6301209;22;20015;-83
2023/10/21 07:40:43;;;;;;;8.32;3.95;;;12.40;99.90;;;;;;6301810;22;20015;-84
2023/10/21 07:43:09;;;;;;;8.00;4.07;;;12.50;99.90;;;;;;6302109;22;20065;-84
2023/10/21 07:45:35;;;;;;;9.15;3.63;;;12.50;99.90;;;;;;6301131;22;20427;-84
2023/10/21 07:48:02;;;;;;;9.10;3.85;;;12.60;99.90;;;;;;6301987;22;20019;-83
2023/10/21 07:50:28;;;;;;;12.50;3.97;;;12.70;99.90;;;;;;6304620;22;20007;-86
2023/10/21 07:52:55;;;;;;;6.15;3.35;;;12.70;99.90;;;;;;6276033;22;20439;-87
2023/10/21 07:55:21;;;;;;;13.23;4.32;;;12.80;99.90;;;;;;6278014;22;20090;-83
2023/10/21 07:57:47;;;;;;;11.77;4.40;;;12.90;99.90;;;;;;6305016;22;20022;-84
2023/10/21 08:00:16;;;;;;;7.65;3.38;;;13.00;99.90;;;;;;6275264;22;20393;-82
2023/10/21 08:02:42;;;;;;;8.27;3.30;;;13.10;99.90;;;;;;6303710;22;20018;-83
2023/10/21 08:05:08;;;;;;;8.77;3.65;;;13.20;99.90;;;;;;6274939;22;20012;-83
2023/10/21 08:07:35;;;;;;;6.25;3.45;;;13.30;99.90;;;;;;6302018;22;20437;-83
2023/10/21 08:10:04;;;;;;;11.52;3.97;;;13.40;99.90;;;;;;6303829;22;20361;-83
2023/10/21 08:12:34;;;;;;;10.82;3.67;;;13.60;99.90;;;;;;6276120;22;20099;-83
2023/10/21 08:15:04;;;;;;;;;;;13.80;99.90;;;;;;6276020;22;20026;-83
2023/10/21 08:17:30;;;;;;;;;;;14.20;99.90;;;;;;6276697;22;19922;-84
2023/10/21 08:19:56;;;;;;;5.10;2.65;;;14.50;99.90;;;;;;6302676;22;19914;-83
2023/10/21 08:22:22;;;;;;;4.90;2.40;;;14.70;99.90;;;;;;6303721;22;20015;-82
2023/10/21 08:24:48;;;;;;;4.35;2.47;;;15.10;99.90;;;;;;6303462;22;20103;-82
2023/10/21 08:27:14;;;;;;;5.22;2.75;;;15.40;99.90;;;;;;6275261;22;20551;-82
2023/10/21 08:29:41;;;;;;;7.38;2.30;;;15.90;99.90;;;;;;6276330;22;20390;-82
2023/10/21 08:32:07;;;;;;;4.85;2.28;;;16.20;99.90;;;;;;6303631;22;20011;-83
2023/10/21 08:34:36;;;;;;;6.05;2.13;;;16.40;99.90;;;;;;6303211;22;20007;-82
2023/10/21 08:37:03;;;;;;;3.25;1.83;;;16.40;99.90;;;;;;6276301;22;20047;-82
2023/10/21 08:39:29;;;;;;;5.28;2.15;;;16.30;99.90;;;;;;6276340;22;20090;-82
2023/10/21 08:41:55;;;;;;;3.20;2.10;;;16.30;99.90;;;;;;6275730;22;20015;-82
2023/10/21 08:44:22;;;;;;;6.55;2.17;;;16.70;99.90;;;;;;6276135;22;20448;-82
2023/10/21 08:46:49;;;;;;;2.95;1.92;;;17.20;99.90;;;;;;6303485;22;20113;-82
2023/10/21 08:49:18;;;;;;;6.93;1.63;;;17.60;99.90;;;;;;6302613;22;20019;-82
2023/10/21 08:51:47;;;;;;;5.57;1.67;;;17.70;99.90;;;;;;6303543;22;20084;-82
2023/10/21 08:54:14;;;;;;;3.33;1.80;;;17.30;99.90;;;;;;6303913;22;20090;-82
2023/10/21 08:56:42;;;;;;;4.13;1.95;;;16.60;99.90;;;;;;6305508;22;20240;-82
2023/10/21 08:59:08;;;;;;;3.80;1.50;;;15.90;99.90;;;;;;6308011;22;20082;-82
2023/10/21 09:01:38;;;;;;;4.65;1.77;;;15.60;99.90;;;;;;6303070;22;20053;-82
2023/10/21 09:04:05;;;;;;;4.47;1.73;;;15.30;99.90;;;;;;6302975;22;20030;-82
2023/10/21 09:06:31;;;;;;;3.78;1.40;;;15.10;99.90;;;;;;6302874;22;20090;-82
2023/10/21 09:08:56;;;;;;;3.40;1.50;;;15.10;99.90;;;;;;6273762;22;20100;-82
2023/10/21 09:11:27;;;;;;;6.20;1.92;;;14.90;99.90;;;;;;6276214;22;20019;-82
2023/10/21 09:13:58;;;;;;;5.03;2.22;;;14.80;99.90;;;;;;6311183;22;20049;-82
2023/10/21 09:16:29;;;;;;;4.82;2.38;;;14.60;99.90;;;;;;6276498;22;20023;-82
2023/10/21 09:19:03;;;;;;;2.58;1.65;;;14.50;99.90;;;;;;6276138;22;20021;-82
2023/10/21 09:21:32;;;;;;;3.85;1.77;;;14.40;99.90;;;;;;6303548;22;20417;-81
2023/10/21 09:24:01;;;;;;;2.40;1.50;;;14.30;99.90;;;;;;6302397;22;20015;-82
2023/10/21 09:26:34;;;;;;;5.47;1.45;;;14.30;99.90;;;;;;6303899;22;20087;-82
2023/10/21 09:29:11;;;;;;;4.75;2.15;;;14.30;99.90;;;;;;6275924;22;20145;-82
2023/10/21 09:31:51;;;;;;;2.88;1.27;;;14.30;99.90;;;;;;6275091;22;20068;-82
2023/10/21 09:34:25;;;;;;;1.70;0.90;;;14.20;99.90;;;;;;6303404;22;20010;-82
2023/10/21 09:36:55;;;;;;;5.22;1.50;;;14.10;99.90;;;;;;6302173;22;20018;-83
2023/10/21 09:39:22;;;;;;;2.17;1.30;;;14.10;99.90;;;;;;6275533;22;20042;-83
2023/10/21 09:41:49;;;;;;;5.80;1.02;;;14.00;99.90;;;;;;6302799;22;20019;-82
2023/10/21 09:44:16;;;;;;;3.15;1.33;;;13.90;99.90;;;;;;6274770;22;20090;-83
2023/10/21 09:46:46;;;;;;;2.85;1.45;;;13.90;99.90;;;;;;6303122;22;20196;-82
2023/10/21 09:49:13;;;;;;;2.00;1.08;;;13.80;99.90;;;;;;6302473;22;20015;-82
2023/10/21 09:52:02;;;;;;;3.25;1.55;;;13.80;99.90;;;;;;6302138;22;20208;-82
2023/10/21 09:54:53;;;;;;;3.90;1.75;;;13.80;99.90;;;;;;6303040;22;20060;-82
2023/10/21 09:57:19;;;;;;;2.65;1.38;;;13.70;99.90;;;;;;6280691;22;20051;-83
2023/10/21 09:59:47;;;;;;;3.08;1.13;;;13.70;99.90;;;;;;6273989;22;20037;-83
2023/10/21 10:02:14;;;;;;;2.15;1.15;;;13.70;99.90;;;;;;6302560;22;20015;-83
2023/10/21 10:04:40;;;;;;;3.00;1.42;;;13.70;99.90;;;;;;6303120;22;20313;-83
2023/10/21 10:07:06;;;;;;;3.88;1.48;;;13.70;99.90;;;;;;6301967;22;20014;-83
2023/10/21 10:09:35;;;;;;;2.63;1.52;;;13.70;99.90;;;;;;6302142;22;20019;-83
2023/10/21 10:12:05;;;;;;;3.97;1.10;;;13.80;99.90;;;;;;6300759;22;20628;-83
2023/10/21 10:14:33;;;;;;;2.28;1.23;;;13.80;99.90;;;;;;6302991;22;20336;-83
2023/10/21 10:17:00;;;;;;;2.13;1.17;;;13.80;99.90;;;;;;6275277;22;20055;-84
2023/10/21 10:19:42;;;;;;;1.75;1.10;;;13.80;99.90;;;;;;6301817;22;20007;-82
2023/10/21 10:22:31;;;;;;;1.30;0.90;;;13.80;99.90;;;;;;6302873;22;20084;-82
2023/10/21 10:25:10;;;;;;;2.72;1.08;;;13.80;99.90;;;;;;6302520;22;20019;-82
2023/10/21 10:27:40;;;;;;;1.10;0.70;;;13.80;99.90;;;;;;6301940;22;20049;-84
2023/10/21 10:30:08;;;;;;;;;;;13.80;99.90;;;;;;6250031;22;20022;-82
2023/10/21 10:32:43;;;;;;;1.30;0.80;;;13.80;99.90;;;;;;6303800;22;20228;-83
2023/10/21 10:35:09;;;;;;;2.65;0.73;;;13.80;99.90;;;;;;6275384;22;20026;-83
2023/10/21 10:37:36;;;;;;;2.08;0.70;;;13.90;99.90;;;;;;6302679;22;20018;-82
2023/10/21 10:40:33;;;;;;;2.03;0.57;;;13.90;99.90;;;;;;6301359;22;20416;-82
2023/10/21 10:42:59;;;;;;;0.40;0.35;;;14.00;99.90;;;;;;6302577;22;20003;-82
2023/10/21 10:45:25;;;;;;;0.70;0.43;;;14.10;99.90;;;;;;6275041;22;20015;-82
2023/10/21 10:48:02;;;;;;;3.00;0.73;;;14.20;99.90;;;;;;6274116;22;20015;-82
2023/10/21 10:50:29;;;;;;;1.10;0.60;;;14.20;99.90;;;;;;6275103;22;20050;-82
2023/10/21 10:52:56;;;;;;;0.60;0.52;;;14.20;99.90;;;;;;6274860;22;20015;-82
2023/10/21 10:55:22;;;;;;;0.43;0.43;;;14.20;99.90;;;;;;6302056;22;20149;-82
2023/10/21 10:57:51;;;;;;;0.43;0.30;;;14.20;99.90;;;;;;6302373;22;20007;-83
2023/10/21 11:00:20;;;;;;;0.47;0.30;;;14.20;99.90;;;;;;6302116;22;20463;-82
2023/10/21 11:02:49;;;;;;;0.20;0.20;;;14.30;99.90;;;;;;6301297;22;20019;-82
2023/10/21 11:05:22;;;;;;;0.43;0.30;;;14.30;99.90;;;;;;6302498;22;20424;-82
2023/10/21 11:07:50;;;;;;;1.20;0.47;;;14.30;99.90;;;;;;6301535;22;20011;-82
2023/10/21 11:10:24;;;;;;;0.90;0.43;;;14.20;99.90;;;;;;6302292;22;20086;-82
2023/10/21 11:12:51;;;;;;;2.03;0.75;;;14.10;99.90;;;;;;6301004;22;20095;-82
2023/10/21 11:15:18;;;;;;;1.08;0.38;;;14.10;99.90;;;;;;6300187;22;20064;-82
2023/10/21 11:17:48;;;;;;;0.82;0.35;;;14.00;99.90;;;;;;6302375;22;20068;-83
2023/10/21 11:20:15;;;;;;;0.20;0.20;;;13.90;99.90;;;;;;6300132;22;20015;-83
2023/10/21 11:22:42;;;;;;;0.50;0.47;;;13.90;99.90;;;;;;6300049;22;20782;-83
2023/10/21 11:25:08;;;;;;;1.52;0.60;;;13.80;99.90;;;;;;6297982;22;20076;-83
2023/10/21 11:27:40;;;;;;;1.20;0.43;;;13.80;99.90;;;;;;6299773;22;20416;-82
2023/10/21 11:30:42;;;;;;;0.30;0.30;;;13.80;99.90;;;;;;6273811;22;20019;-82
2023/10/21 11:33:13;;;;;;;1.63;0.43;;;13.80;99.90;;;;;;6274404;22;20016;-82
2023/10/21 11:35:46;;;;;;;0.47;0.20;;;13.90;99.90;;;;;;6274403;22;20090;-82
2023/10/21 11:38:21;;;;;;;1.13;0.45;;;13.90;99.90;;;;;;6273916;22;20414;-83
2023/10/21 11:41:01;;;;;;;0.50;0.32;;;14.00;99.90;;;;;;6301614;22;20015;-82
2023/10/21 11:43:35;;;;;;;1.05;0.40;;;14.10;99.90;;;;;;6298472;22;20014;-83
2023/10/21 11:46:00;;;;;;;1.08;0.55;;;14.20;99.90;;;;;;6275912;22;20023;-83
2023/10/21 11:48:26;;;;;;;0.73;0.60;;;14.30;99.90;;;;;;6301697;22;20023;-87
2023/10/21 11:50:52;;;;;;;3.90;0.68;;;14.60;99.90;;;;;;6301648;22;20432;-85
2023/10/21 11:53:19;;;;;;;1.75;0.45;;;15.30;99.90;;;;;;6302259;22;20007;-83
2023/10/21 12:19:49;;;;;;;1.10;0.35;;;14.90;99.90;;;;;;6299238;22;20616;-83
2023/10/21 12:33:20;;;;;;;1.08;0.40;;;14.70;99.90;;;;;;6271209;22;20054;-82
2023/10/21 12:36:10;;;;;;;0.50;0.30;;;14.70;99.90;;;;;;6300947;22;20110;-82
2023/10/21 12:38:40;;;;;;;0.85;0.32;;;14.70;99.90;;;;;;6274448;22;20015;-82
2023/10/21 12:43:38;;;;;;;0.77;0.57;;;14.60;99.90;;;;;;6274360;22;20043;-82
2023/10/21 12:46:22;;;;;;;0.68;0.30;;;14.60;99.90;;;;;;6301609;22;20019;-82
2023/10/21 12:48:52;;;;;;;0.20;0.20;;;14.60;99.90;;;;;;6301717;22;20022;-82
2023/10/21 12:51:20;;;;;;;0.50;0.30;;;14.60;99.90;;;;;;6274703;22;20027;-82
2023/10/21 12:53:46;;;;;;;2.97;0.63;;;14.60;99.90;;;;;;6301050;22;20015;-81
2023/10/21 12:56:13;;;;;;;0.70;0.50;;;14.60;99.90;;;;;;6302683;22;20065;-81
2023/10/21 12:58:39;;;;;;;1.33;0.52;;;14.60;99.90;;;;;;6303515;22;20108;-81
2023/10/21 13:01:09;;;;;;;3.80;1.05;;;14.50;99.90;;;;;;6302806;22;20335;-82
2023/10/21 13:03:37;;;;;;;1.65;0.50;;;14.50;99.90;;;;;;6303700;22;20053;-82
2023/10/21 13:06:05;;;;;;;1.65;0.60;;;14.50;99.90;;;;;;6303927;22;20473;-82
2023/10/21 13:08:32;;;;;;;0.40;0.20;;;14.50;99.90;;;;;;6275477;22;20094;-82
2023/10/21 13:10:58;;;;;;;0.85;0.50;;;14.50;99.90;;;;;;6304636;22;20046;-82
2023/10/21 13:13:27;;;;;;;0.30;0.22;;;14.50;99.90;;;;;;6304550;22;20015;-82
2023/10/21 13:15:56;;;;;;;0.57;0.20;;;14.60;99.90;;;;;;6303002;22;20015;-82
2023/10/21 13:18:25;;;;;;;0.63;0.20;;;14.70;99.90;;;;;;6302727;22;20022;-82
2023/10/21 13:20:52;;;;;;;0.43;0.20;;;14.80;99.90;;;;;;6301465;22;20098;-81
2023/10/21 13:23:18;;;;;;;0.63;0.30;;;14.90;99.90;;;;;;6303429;22;20331;-82
2023/10/21 13:25:44;;;;;;;0.32;0.20;;;14.90;99.90;;;;;;6303531;22;20011;-82
2023/10/21 13:28:10;;;;;;;1.98;0.50;;;15.00;99.90;;;;;;6302527;22;20505;-82